sensor_id;sensor_type;location;lat;lon;timestamp;pressure;altitude;pressure_sealevel;temperature;humidity
12178;BME280;6152;48.728;9.256;2024-02-04T00:01:41;98171.91;;;6.76;100.00
12178;BME280;6152;48.728;9.256;2024-02-04T00:04:08;98164.28;;;6.71;100.00
12178;BME280;6152;48.728;9.256;2024-02-04T00:06:34;98159.97;;;6.70;100.00
12178;BME280;6152;48.728;9.256;2024-02-04T00:09:00;98154.91;;;6.67;100.00
12178;BME280;6152;48.728;9.256;2024-02-04T00:11:26;98157.66;;;6.61;100.00
12178;BME280;6152;48.728;9.256;2024-02-04T00:13:52;98149.06;;;6.60;100.00
12178;BME280;6152;48.728;9.256;2024-02-04T00:16:18;98140.34;;;6.63;100.00
12178;BME280;6152;48.728;9.256;2024-02-04T00:18:44;98137.81;;;6.62;100.00
12178;BME280;6152;48.728;9.256;2024-02-04T00:21:11;98125.00;;;6.57;100.00
12178;BME280;6152;48.728;9.256;2024-02-04T00:23:37;98114.69;;;6.55;100.00
12178;BME280;6152;48.728;9.256;2024-02-04T00:26:03;98102.69;;;6.54;100.00
12178;BME280;6152;48.728;9.256;2024-02-04T00:28:29;98101.84;;;6.52;100.00
12178;BME280;6152;48.728;9.256;2024-02-04T00:30:55;98100.25;;;6.48;100.00
12178;BME280;6152;48.728;9.256;2024-02-04T00:33:22;98093.41;;;6.47;100.00
12178;BME280;6152;48.728;9.256;2024-02-04T00:35:49;98089.16;;;6.45;100.00
12178;BME280;6152;48.728;9.256;2024-02-04T00:38:16;98090.00;;;6.45;100.00
12178;BME280;6152;48.728;9.256;2024-02-04T00:40:42;98099.66;;;6.39;100.00
12178;BME280;6152;48.728;9.256;2024-02-04T00:43:08;98093.66;;;6.38;100.00
12178;BME280;6152;48.728;9.256;2024-02-04T00:45:34;98092.13;;;6.31;100.00
12178;BME280;6152;48.728;9.256;2024-02-04T00:48:00;98094.72;;;6.31;100.00
12178;BME280;6152;48.728;9.256;2024-02-04T00:50:26;98102.59;;;6.27;100.00
12178;BME280;6152;48.728;9.256;2024-02-04T00:52:52;98100.22;;;6.19;100.00
12178;BME280;6152;48.728;9.256;2024-02-04T00:55:19;98103.78;;;6.15;100.00
12178;BME280;6152;48.728;9.256;2024-02-04T00:57:46;98107.34;;;6.11;100.00
12178;BME280;6152;48.728;9.256;2024-02-04T01:00:12;98115.00;;;6.14;100.00
12178;BME280;6152;48.728;9.256;2024-02-04T01:02:41;98114.28;;;6.09;100.00
12178;BME280;6152;48.728;9.256;2024-02-04T01:05:08;98118.63;;;6.07;100.00
12178;BME280;6152;48.728;9.256;2024-02-04T01:07:34;98103.13;;;6.07;100.00
12178;BME280;6152;48.728;9.256;2024-02-04T01:10:00;98103.13;;;6.07;100.00
12178;BME280;6152;48.728;9.256;2024-02-04T01:12:26;98106.75;;;6.00;100.00
12178;BME280;6152;48.728;9.256;2024-02-04T01:14:52;98124.94;;;5.97;100.00
12178;BME280;6152;48.728;9.256;2024-02-04T01:17:18;98122.25;;;6.00;100.00
12178;BME280;6152;48.728;9.256;2024-02-04T01:19:45;98115.22;;;6.06;100.00
12178;BME280;6152;48.728;9.256;2024-02-04T01:22:11;98113.41;;;6.10;100.00
12178;BME280;6152;48.728;9.256;2024-02-04T01:24:37;98104.66;;;6.14;100.00
12178;BME280;6152;48.728;9.256;2024-02-04T01:27:03;98104.75;;;6.11;100.00
12178;BME280;6152;48.728;9.256;2024-02-04T01:29:29;98103.75;;;6.17;100.00
12178;BME280;6152;48.728;9.256;2024-02-04T01:31:55;98098.69;;;6.14;100.00
12178;BME280;6152;48.728;9.256;2024-02-04T01:34:21;98097.91;;;6.10;100.00
12178;BME280;6152;48.728;9.256;2024-02-04T01:36:47;98103.19;;;6.05;100.00
12178;BME280;6152;48.728;9.256;2024-02-04T01:39:13;98111.88;;;6.03;100.00
12178;BME280;6152;48.728;9.256;2024-02-04T01:41:40;98090.47;;;5.98;100.00
12178;BME280;6152;48.728;9.256;2024-02-04T01:44:06;98082.78;;;5.96;100.00
12178;BME280;6152;48.728;9.256;2024-02-04T01:46:32;98086.34;;;5.91;100.00
12178;BME280;6152;48.728;9.256;2024-02-04T01:49:00;98098.47;;;5.89;100.00
12178;BME280;6152;48.728;9.256;2024-02-04T01:51:26;98100.16;;;5.90;100.00
12178;BME280;6152;48.728;9.256;2024-02-04T01:53:52;98114.06;;;5.86;100.00
12178;BME280;6152;48.728;9.256;2024-02-04T01:56:18;98112.25;;;5.88;100.00
12178;BME280;6152;48.728;9.256;2024-02-04T01:58:46;98098.31;;;5.95;100.00
12178;BME280;6152;48.728;9.256;2024-02-04T02:01:13;98092.94;;;6.02;100.00
12178;BME280;6152;48.728;9.256;2024-02-04T02:03:39;98096.44;;;6.00;100.00
12178;BME280;6152;48.728;9.256;2024-02-04T02:06:06;98101.53;;;6.03;100.00
12178;BME280;6152;48.728;9.256;2024-02-04T02:08:33;98098.03;;;6.04;100.00
12178;BME280;6152;48.728;9.256;2024-02-04T02:11:11;98091.13;;;6.06;100.00
12178;BME280;6152;48.728;9.256;2024-02-04T02:13:41;98096.03;;;6.15;100.00
12178;BME280;6152;48.728;9.256;2024-02-04T02:16:13;98094.31;;;6.14;100.00
12178;BME280;6152;48.728;9.256;2024-02-04T02:18:52;98095.75;;;6.24;100.00
12178;BME280;6152;48.728;9.256;2024-02-04T02:21:30;98097.66;;;6.19;100.00
12178;BME280;6152;48.728;9.256;2024-02-04T02:26:50;98089.72;;;6.25;100.00
12178;BME280;6152;48.728;9.256;2024-02-04T02:29:16;98100.94;;;6.24;100.00
12178;BME280;6152;48.728;9.256;2024-02-04T02:31:43;98097.44;;;6.27;100.00
12178;BME280;6152;48.728;9.256;2024-02-04T02:34:10;98102.56;;;6.28;100.00
12178;BME280;6152;48.728;9.256;2024-02-04T02:36:54;98116.38;;;6.27;100.00
12178;BME280;6152;48.728;9.256;2024-02-04T02:39:25;98114.59;;;6.29;100.00
12178;BME280;6152;48.728;9.256;2024-02-04T02:41:57;98108.41;;;6.35;100.00
12178;BME280;6152;48.728;9.256;2024-02-04T02:44:26;98105.78;;;6.36;100.00
12178;BME280;6152;48.728;9.256;2024-02-04T02:46:54;98101.47;;;6.37;100.00
12178;BME280;6152;48.728;9.256;2024-02-04T02:49:21;98092.88;;;6.35;100.00
12178;BME280;6152;48.728;9.256;2024-02-04T02:51:48;98104.06;;;6.35;100.00
12178;BME280;6152;48.728;9.256;2024-02-04T02:54:14;98100.69;;;6.33;100.00
12178;BME280;6152;48.728;9.256;2024-02-04T02:56:40;98105.78;;;6.36;100.00
12178;BME280;6152;48.728;9.256;2024-02-04T02:59:06;98102.41;;;6.34;100.00
12178;BME280;6152;48.728;9.256;2024-02-04T03:01:32;98095.44;;;6.36;100.00
12178;BME280;6152;48.728;9.256;2024-02-04T03:03:58;98110.16;;;6.34;100.00
12178;BME280;6152;48.728;9.256;2024-02-04T03:06:24;98111.03;;;6.33;100.00
12178;BME280;6152;48.728;9.256;2024-02-04T03:08:50;98104.06;;;6.35;100.00
12178;BME280;6152;48.728;9.256;2024-02-04T03:11:16;98099.81;;;6.34;100.00
12178;BME280;6152;48.728;9.256;2024-02-04T03:13:42;98089.38;;;6.37;100.00
12178;BME280;6152;48.728;9.256;2024-02-04T03:16:12;98085.09;;;6.36;100.00
12178;BME280;6152;48.728;9.256;2024-02-04T03:18:42;98080.69;;;6.40;100.00
12178;BME280;6152;48.728;9.256;2024-02-04T03:21:15;98068.72;;;6.37;100.00
12178;BME280;6152;48.728;9.256;2024-02-04T03:23:43;98069.69;;;6.33;100.00
12178;BME280;6152;48.728;9.256;2024-02-04T03:26:10;98075.03;;;6.27;100.00
12178;BME280;6152;48.728;9.256;2024-02-04T03:28:37;98066.34;;;6.30;100.00
12178;BME280;6152;48.728;9.256;2024-02-04T03:31:03;98066.34;;;6.30;100.00
12178;BME280;6152;48.728;9.256;2024-02-04T03:33:29;98069.00;;;6.27;100.00
12178;BME280;6152;48.728;9.256;2024-02-04T03:35:55;98067.19;;;6.30;100.00
12178;BME280;6152;48.728;9.256;2024-02-04T03:38:21;98076.69;;;6.28;100.00
12178;BME280;6152;48.728;9.256;2024-02-04T03:40:48;98068.94;;;6.28;100.00
12178;BME280;6152;48.728;9.256;2024-02-04T03:43:15;98070.63;;;6.31;100.00
12178;BME280;6152;48.728;9.256;2024-02-04T03:45:41;98070.63;;;6.31;100.00
12178;BME280;6152;48.728;9.256;2024-02-04T03:48:07;98074.94;;;6.30;100.00
12178;BME280;6152;48.728;9.256;2024-02-04T03:50:35;98077.56;;;6.29;100.00
12178;BME280;6152;48.728;9.256;2024-02-04T03:53:01;98072.44;;;6.27;100.00
12178;BME280;6152;48.728;9.256;2024-02-04T03:55:27;98076.59;;;6.31;100.00
12178;BME280;6152;48.728;9.256;2024-02-04T03:57:55;98061.09;;;6.31;100.00
12178;BME280;6152;48.728;9.256;2024-02-04T04:00:23;98061.94;;;6.32;100.00
12178;BME280;6152;48.728;9.256;2024-02-04T04:02:49;98061.09;;;6.31;100.00
12178;BME280;6152;48.728;9.256;2024-02-04T04:05:15;98052.47;;;6.32;100.00
12178;BME280;6152;48.728;9.256;2024-02-04T04:07:41;98049.09;;;6.30;100.00
12178;BME280;6152;48.728;9.256;2024-02-04T04:10:07;98048.25;;;6.30;100.00
12178;BME280;6152;48.728;9.256;2024-02-04T04:12:33;98054.34;;;6.27;100.00
12178;BME280;6152;48.728;9.256;2024-02-04T04:14:59;98061.28;;;6.25;100.00
12178;BME280;6152;48.728;9.256;2024-02-04T04:17:25;98064.59;;;6.30;100.00
12178;BME280;6152;48.728;9.256;2024-02-04T04:19:52;98068.91;;;6.30;100.00
12178;BME280;6152;48.728;9.256;2024-02-04T04:22:18;98081.03;;;6.28;100.00
12178;BME280;6152;48.728;9.256;2024-02-04T04:24:44;98078.50;;;6.26;100.00
12178;BME280;6152;48.728;9.256;2024-02-04T04:27:10;98077.63;;;6.27;100.00
12178;BME280;6152;48.728;9.256;2024-02-04T04:29:36;98072.50;;;6.24;100.00
12178;BME280;6152;48.728;9.256;2024-02-04T04:32:02;98068.16;;;6.26;100.00
12178;BME280;6152;48.728;9.256;2024-02-04T04:34:28;98080.91;;;6.32;100.00
12178;BME280;6152;48.728;9.256;2024-02-04T04:36:54;98077.53;;;6.30;100.00
12178;BME280;6152;48.728;9.256;2024-02-04T04:39:21;98088.75;;;6.29;100.00
12178;BME280;6152;48.728;9.256;2024-02-04T04:41:47;98087.00;;;6.30;100.00
12178;BME280;6152;48.728;9.256;2024-02-04T04:44:13;98082.78;;;6.27;100.00
12178;BME280;6152;48.728;9.256;2024-02-04T04:46:40;98083.66;;;6.26;100.00
12178;BME280;6152;48.728;9.256;2024-02-04T04:49:06;98094.88;;;6.25;100.00
12178;BME280;6152;48.728;9.256;2024-02-04T04:51:32;98095.75;;;6.24;100.00
12178;BME280;6152;48.728;9.256;2024-02-04T04:53:59;98099.25;;;6.23;100.00
12178;BME280;6152;48.728;9.256;2024-02-04T04:56:25;98099.19;;;6.26;100.00
12178;BME280;6152;48.728;9.256;2024-02-04T04:58:51;98104.34;;;6.26;100.00
12178;BME280;6152;48.728;9.256;2024-02-04T05:01:17;98105.97;;;6.30;100.00
12178;BME280;6152;48.728;9.256;2024-02-04T05:03:44;98110.31;;;6.28;100.00
12178;BME280;6152;48.728;9.256;2024-02-04T05:06:10;98095.63;;;6.30;100.00
12178;BME280;6152;48.728;9.256;2024-02-04T05:08:36;98099.97;;;6.28;100.00
12178;BME280;6152;48.728;9.256;2024-02-04T05:11:02;98091.25;;;6.32;100.00
12178;BME280;6152;48.728;9.256;2024-02-04T05:13:28;98075.06;;;6.26;100.00
12178;BME280;6152;48.728;9.256;2024-02-04T05:15:54;98082.72;;;6.29;100.00
12178;BME280;6152;48.728;9.256;2024-02-04T05:18:20;98094.78;;;6.30;100.00
12178;BME280;6152;48.728;9.256;2024-02-04T05:20:46;98101.00;;;6.23;100.00
12178;BME280;6152;48.728;9.256;2024-02-04T05:23:14;98099.25;;;6.23;100.00
12178;BME280;6152;48.728;9.256;2024-02-04T05:25:40;98101.88;;;6.22;100.00
12178;BME280;6152;48.728;9.256;2024-02-04T05:28:07;98097.47;;;6.25;100.00
12178;BME280;6152;48.728;9.256;2024-02-04T05:30:33;98108.69;;;6.24;100.00
12178;BME280;6152;48.728;9.256;2024-02-04T05:32:59;98104.47;;;6.22;100.00
12178;BME280;6152;48.728;9.256;2024-02-04T05:35:25;98099.28;;;6.22;100.00
12178;BME280;6152;48.728;9.256;2024-02-04T05:37:51;98097.56;;;6.22;100.00
12178;BME280;6152;48.728;9.256;2024-02-04T05:40:17;98093.44;;;6.15;100.00
12178;BME280;6152;48.728;9.256;2024-02-04T05:42:45;98099.41;;;6.17;100.00
12178;BME280;6152;48.728;9.256;2024-02-04T05:45:11;98090.78;;;6.18;100.00
12178;BME280;6152;48.728;9.256;2024-02-04T05:47:38;98085.44;;;6.24;100.00
12178;BME280;6152;48.728;9.256;2024-02-04T05:50:04;98096.75;;;6.20;100.00
12178;BME280;6152;48.728;9.256;2024-02-04T05:52:30;98103.00;;;6.13;100.00
12178;BME280;6152;48.728;9.256;2024-02-04T05:54:56;98101.19;;;6.15;100.00
12178;BME280;6152;48.728;9.256;2024-02-04T05:57:23;98121.97;;;6.12;100.00
12178;BME280;6152;48.728;9.256;2024-02-04T05:59:50;98117.75;;;6.08;100.00
12178;BME280;6152;48.728;9.256;2024-02-04T06:02:18;98115.16;;;6.08;100.00
12178;BME280;6152;48.728;9.256;2024-02-04T06:04:44;98123.75;;;6.10;100.00
12178;BME280;6152;48.728;9.256;2024-02-04T06:07:11;98121.97;;;6.10;100.00
12178;BME280;6152;48.728;9.256;2024-02-04T06:09:37;98120.34;;;6.08;100.00
12178;BME280;6152;48.728;9.256;2024-02-04T06:12:04;98116.00;;;6.10;100.00
12178;BME280;6152;48.728;9.256;2024-02-04T06:14:33;98111.53;;;6.15;100.00
12178;BME280;6152;48.728;9.256;2024-02-04T06:17:00;98109.91;;;6.11;100.00
12178;BME280;6152;48.728;9.256;2024-02-04T06:19:26;98116.97;;;6.06;100.00
12178;BME280;6152;48.728;9.256;2024-02-04T06:21:53;98129.06;;;6.04;100.00
12178;BME280;6152;48.728;9.256;2024-02-04T06:24:19;98119.66;;;6.01;100.00
12178;BME280;6152;48.728;9.256;2024-02-04T06:26:46;98131.81;;;5.98;100.00
12178;BME280;6152;48.728;9.256;2024-02-04T06:29:12;98130.88;;;6.00;100.00
12178;BME280;6152;48.728;9.256;2024-02-04T06:31:38;98111.88;;;6.03;100.00
12178;BME280;6152;48.728;9.256;2024-02-04T06:34:04;98117.94;;;6.02;100.00
12178;BME280;6152;48.728;9.256;2024-02-04T06:36:30;98099.94;;;5.99;100.00
12178;BME280;6152;48.728;9.256;2024-02-04T06:38:56;98107.53;;;6.03;100.00
12178;BME280;6152;48.728;9.256;2024-02-04T06:41:22;98107.63;;;6.00;100.00
12178;BME280;6152;48.728;9.256;2024-02-04T06:43:48;98108.44;;;6.02;100.00
12178;BME280;6152;48.728;9.256;2024-02-04T06:46:24;98118.81;;;6.01;100.00
12178;BME280;6152;48.728;9.256;2024-02-04T06:48:50;98134.38;;;5.98;100.00
12178;BME280;6152;48.728;9.256;2024-02-04T06:51:16;98132.59;;;6.00;100.00
12178;BME280;6152;48.728;9.256;2024-02-04T06:53:43;98145.38;;;6.06;100.00
12178;BME280;6152;48.728;9.256;2024-02-04T06:56:09;98146.25;;;6.05;100.00
12178;BME280;6152;48.728;9.256;2024-02-04T06:58:38;98142.88;;;6.03;100.00
12178;BME280;6152;48.728;9.256;2024-02-04T07:01:04;98144.56;;;6.04;100.00
12178;BME280;6152;48.728;9.256;2024-02-04T07:03:30;98146.25;;;6.05;100.00
12178;BME280;6152;48.728;9.256;2024-02-04T07:06:00;98137.53;;;6.09;100.00
12178;BME280;6152;48.728;9.256;2024-02-04T07:08:26;98130.41;;;6.17;100.00
12178;BME280;6152;48.728;9.256;2024-02-04T07:10:52;98127.03;;;6.15;100.00
12178;BME280;6152;48.728;9.256;2024-02-04T07:13:19;98116.63;;;6.18;100.00
12178;BME280;6152;48.728;9.256;2024-02-04T07:15:45;98116.63;;;6.18;100.00
12178;BME280;6152;48.728;9.256;2024-02-04T07:18:11;98114.19;;;6.14;100.00
12178;BME280;6152;48.728;9.256;2024-02-04T07:20:37;98112.50;;;6.11;100.00
12178;BME280;6152;48.728;9.256;2024-02-04T07:23:04;98106.63;;;6.06;100.00
12178;BME280;6152;48.728;9.256;2024-02-04T07:25:30;98110.94;;;6.05;100.00
12178;BME280;6152;48.728;9.256;2024-02-04T07:27:57;98110.09;;;6.05;100.00
12178;BME280;6152;48.728;9.256;2024-02-04T07:30:24;98107.69;;;5.99;100.00
12178;BME280;6152;48.728;9.256;2024-02-04T07:32:50;98100.84;;;5.96;100.00
12178;BME280;6152;48.728;9.256;2024-02-04T07:35:16;98100.09;;;5.93;100.00
12178;BME280;6152;48.728;9.256;2024-02-04T07:37:43;98104.41;;;5.92;100.00
12178;BME280;6152;48.728;9.256;2024-02-04T07:40:10;98101.84;;;5.91;100.00
12178;BME280;6152;48.728;9.256;2024-02-04T07:42:36;98094.84;;;5.96;100.00
12178;BME280;6152;48.728;9.256;2024-02-04T07:45:02;98109.50;;;5.95;100.00
12178;BME280;6152;48.728;9.256;2024-02-04T07:47:34;98103.13;;;6.07;100.00
12178;BME280;6152;48.728;9.256;2024-02-04T07:50:00;98104.84;;;6.08;100.00
12178;BME280;6152;48.728;9.256;2024-02-04T07:52:26;98112.41;;;6.14;100.00
12178;BME280;6152;48.728;9.256;2024-02-04T07:54:53;98114.91;;;6.17;100.00
12178;BME280;6152;48.728;9.256;2024-02-04T07:57:19;98107.81;;;6.25;100.00
12178;BME280;6152;48.728;9.256;2024-02-04T07:59:45;98101.50;;;6.35;100.00
12178;BME280;6152;48.728;9.256;2024-02-04T08:02:11;98084.91;;;6.42;100.00
12178;BME280;6152;48.728;9.256;2024-02-04T08:04:39;98082.31;;;6.44;100.00
12178;BME280;6152;48.728;9.256;2024-02-04T08:07:05;98075.09;;;6.55;100.00
12178;BME280;6152;48.728;9.256;2024-02-04T08:09:31;98078.34;;;6.62;100.00
12178;BME280;6152;48.728;9.256;2024-02-04T08:11:57;98080.66;;;6.71;100.00
12178;BME280;6152;48.728;9.256;2024-02-04T08:14:23;98081.31;;;6.77;100.00
12178;BME280;6152;48.728;9.256;2024-02-04T08:16:50;98074.34;;;6.79;100.00
12178;BME280;6152;48.728;9.256;2024-02-04T08:19:16;98067.38;;;6.81;100.00
12178;BME280;6152;48.728;9.256;2024-02-04T08:21:42;98083.75;;;6.82;100.00
12178;BME280;6152;48.728;9.256;2024-02-04T08:24:09;98092.28;;;6.85;100.00
12178;BME280;6152;48.728;9.256;2024-02-04T08:26:35;98098.13;;;6.92;100.00
12178;BME280;6152;48.728;9.256;2024-02-04T08:29:01;98088.56;;;6.94;100.00
12178;BME280;6152;48.728;9.256;2024-02-04T08:31:27;98086.88;;;6.93;100.00
12178;BME280;6152;48.728;9.256;2024-02-04T08:33:53;98084.78;;;7.04;100.00
12178;BME280;6152;48.728;9.256;2024-02-04T08:36:19;98098.44;;;7.09;100.00
12178;BME280;6152;48.728;9.256;2024-02-04T08:38:45;98097.38;;;7.16;100.00
12178;BME280;6152;48.728;9.256;2024-02-04T08:41:11;98103.06;;;7.27;100.00
12178;BME280;6152;48.728;9.256;2024-02-04T08:43:38;98101.16;;;7.32;100.00
12178;BME280;6152;48.728;9.256;2024-02-04T08:46:05;98112.22;;;7.37;100.00
12178;BME280;6152;48.728;9.256;2024-02-04T08:48:31;98124.25;;;7.38;100.00
12178;BME280;6152;48.728;9.256;2024-02-04T08:50:57;98125.09;;;7.39;100.00
12178;BME280;6152;48.728;9.256;2024-02-04T08:53:23;98117.13;;;7.45;100.00
12178;BME280;6152;48.728;9.256;2024-02-04T08:55:49;98126.56;;;7.47;100.00
12178;BME280;6152;48.728;9.256;2024-02-04T08:58:15;98121.50;;;7.44;100.00
12178;BME280;6152;48.728;9.256;2024-02-04T09:00:42;98112.81;;;7.45;100.00
12178;BME280;6152;48.728;9.256;2024-02-04T09:03:08;98101.66;;;7.43;100.00
12178;BME280;6152;48.728;9.256;2024-02-04T09:05:34;98105.84;;;7.47;100.00
12178;BME280;6152;48.728;9.256;2024-02-04T09:08:00;98093.03;;;7.43;100.00
12178;BME280;6152;48.728;9.256;2024-02-04T09:10:27;98106.63;;;7.49;100.00
12178;BME280;6152;48.728;9.256;2024-02-04T09:12:53;98103.16;;;7.50;100.00
12178;BME280;6152;48.728;9.256;2024-02-04T09:15:19;98096.28;;;7.49;100.00
12178;BME280;6152;48.728;9.256;2024-02-04T09:17:45;98092.84;;;7.49;100.00
12178;BME280;6152;48.728;9.256;2024-02-04T09:20:11;98098.75;;;7.52;100.00
12178;BME280;6152;48.728;9.256;2024-02-04T09:22:38;98106.44;;;7.55;100.00
12178;BME280;6152;48.728;9.256;2024-02-04T09:25:05;98098.56;;;7.58;100.00
12178;BME280;6152;48.728;9.256;2024-02-04T09:27:31;98107.16;;;7.60;100.00
12178;BME280;6152;48.728;9.256;2024-02-04T09:29:57;98103.56;;;7.65;100.00
12178;BME280;6152;48.728;9.256;2024-02-04T09:32:24;98108.56;;;7.69;100.00
12178;BME280;6152;48.728;9.256;2024-02-04T09:34:50;98119.78;;;7.70;100.00
12178;BME280;6152;48.728;9.256;2024-02-04T09:37:16;98112.63;;;7.78;100.00
12178;BME280;6152;48.728;9.256;2024-02-04T09:39:43;98121.00;;;7.86;100.00
12178;BME280;6152;48.728;9.256;2024-02-04T09:42:09;98125.34;;;7.84;100.00
12178;BME280;6152;48.728;9.256;2024-02-04T09:44:36;98120.78;;;7.92;100.00
12178;BME280;6152;48.728;9.256;2024-02-04T09:47:04;98110.91;;;8.03;100.00
12178;BME280;6152;48.728;9.256;2024-02-04T09:49:32;98115.03;;;8.07;100.00
12178;BME280;6152;48.728;9.256;2024-02-04T09:52:00;98120.81;;;8.15;100.00
12178;BME280;6152;48.728;9.256;2024-02-04T09:54:31;98118.19;;;8.41;100.00
12178;BME280;6152;48.728;9.256;2024-02-04T09:56:59;98121.25;;;8.52;100.00
12178;BME280;6152;48.728;9.256;2024-02-04T09:59:26;98112.66;;;8.74;100.00
12178;BME280;6152;48.728;9.256;2024-02-04T10:01:53;98109.97;;;8.77;100.00
12178;BME280;6152;48.728;9.256;2024-02-04T10:04:20;98099.56;;;8.77;100.00
12178;BME280;6152;48.728;9.256;2024-02-04T10:06:46;98089.31;;;8.74;100.00
12178;BME280;6152;48.728;9.256;2024-02-04T10:09:13;98086.69;;;8.75;100.00
12178;BME280;6152;48.728;9.256;2024-02-04T10:11:39;98078.66;;;8.81;100.00
12178;BME280;6152;48.728;9.256;2024-02-04T10:14:06;98079.06;;;8.71;100.00
12178;BME280;6152;48.728;9.256;2024-02-04T10:16:35;98075.22;;;8.81;100.00
12178;BME280;6152;48.728;9.256;2024-02-04T10:19:01;98064.59;;;8.87;100.00
12178;BME280;6152;48.728;9.256;2024-02-04T10:21:28;98076.09;;;9.03;100.00
12178;BME280;6152;48.728;9.256;2024-02-04T10:23:54;98075.00;;;9.08;100.00
12178;BME280;6152;48.728;9.256;2024-02-04T10:26:22;98059.41;;;9.08;100.00
12178;BME280;6152;48.728;9.256;2024-02-04T10:28:49;98051.16;;;8.99;100.00
12178;BME280;6152;48.728;9.256;2024-02-04T10:31:15;98046.72;;;9.01;100.00
12178;BME280;6152;48.728;9.256;2024-02-04T10:33:41;98048.28;;;9.05;100.00
12178;BME280;6152;48.728;9.256;2024-02-04T10:36:07;98032.47;;;9.11;100.00
12178;BME280;6152;48.728;9.256;2024-02-04T10:38:34;98041.53;;;9.23;100.00
12178;BME280;6152;48.728;9.256;2024-02-04T10:41:01;98046.34;;;9.32;100.00
12178;BME280;6152;48.728;9.256;2024-02-04T10:43:33;98037.38;;;9.39;100.00
12178;BME280;6152;48.728;9.256;2024-02-04T10:46:18;98055.28;;;9.46;100.00
12178;BME280;6152;48.728;9.256;2024-02-04T10:48:55;98038.53;;;9.53;100.00
12178;BME280;6152;48.728;9.256;2024-02-04T10:51:25;98036.50;;;9.60;100.00
12178;BME280;6152;48.728;9.256;2024-02-04T10:53:55;98044.25;;;9.82;100.00
12178;BME280;6152;48.728;9.256;2024-02-04T10:56:33;98050.34;;;10.01;100.00
12178;BME280;6152;48.728;9.256;2024-02-04T10:59:03;98052.94;;;10.21;100.00
12178;BME280;6152;48.728;9.256;2024-02-04T11:01:30;98047.88;;;10.18;100.00
12178;BME280;6152;48.728;9.256;2024-02-04T11:03:57;98050.47;;;10.18;100.00
12178;BME280;6152;48.728;9.256;2024-02-04T11:06:24;98054.13;;;10.34;100.00
12178;BME280;6152;48.728;9.256;2024-02-04T11:08:52;98049.63;;;10.18;100.00
12178;BME280;6152;48.728;9.256;2024-02-04T11:11:20;98029.06;;;10.11;100.00
12178;BME280;6152;48.728;9.256;2024-02-04T11:13:48;98025.19;;;10.22;100.00
12178;BME280;6152;48.728;9.256;2024-02-04T11:19:36;98010.72;;;10.53;100.00
12178;BME280;6152;48.728;9.256;2024-02-04T11:22:22;98009.44;;;10.81;100.00
12178;BME280;6152;48.728;9.256;2024-02-04T11:25:08;98004.69;;;11.42;100.00
12178;BME280;6152;48.728;9.256;2024-02-04T11:27:41;98014.25;;;12.58;100.00
12178;BME280;6152;48.728;9.256;2024-02-04T11:30:08;98011.88;;;13.92;100.00
12178;BME280;6152;48.728;9.256;2024-02-04T11:32:36;97998.41;;;16.13;90.72
12178;BME280;6152;48.728;9.256;2024-02-04T11:35:02;98007.84;;;16.66;71.35
12178;BME280;6152;48.728;9.256;2024-02-04T11:37:32;98003.25;;;16.07;74.71
12178;BME280;6152;48.728;9.256;2024-02-04T11:39:59;98002.94;;;15.99;76.75
12178;BME280;6152;48.728;9.256;2024-02-04T11:42:31;98007.03;;;16.28;76.31
12178;BME280;6152;48.728;9.256;2024-02-04T11:45:13;97989.06;;;17.20;66.17
12178;BME280;6152;48.728;9.256;2024-02-04T11:47:40;97990.69;;;17.57;66.80
12178;BME280;6152;48.728;9.256;2024-02-04T11:50:06;97985.13;;;16.78;66.22
12178;BME280;6152;48.728;9.256;2024-02-04T11:52:33;97978.53;;;17.90;63.26
12178;BME280;6152;48.728;9.256;2024-02-04T11:54:59;97973.44;;;18.88;59.48
12178;BME280;6152;48.728;9.256;2024-02-04T11:57:26;97974.13;;;19.44;55.70
12178;BME280;6152;48.728;9.256;2024-02-04T11:59:54;97972.63;;;19.72;53.09
12178;BME280;6152;48.728;9.256;2024-02-04T12:02:21;97975.84;;;19.23;54.61
12178;BME280;6152;48.728;9.256;2024-02-04T12:04:48;97967.81;;;18.48;56.19
12178;BME280;6152;48.728;9.256;2024-02-04T12:07:15;97953.41;;;17.86;57.81
12178;BME280;6152;48.728;9.256;2024-02-04T12:09:43;97954.91;;;17.07;60.12
12178;BME280;6152;48.728;9.256;2024-02-04T12:12:10;97954.94;;;15.97;65.40
12178;BME280;6152;48.728;9.256;2024-02-04T12:14:37;97944.84;;;15.53;72.32
12178;BME280;6152;48.728;9.256;2024-02-04T12:17:11;97935.47;;;15.49;76.51
12178;BME280;6152;48.728;9.256;2024-02-04T12:19:38;97935.03;;;15.42;74.56
12178;BME280;6152;48.728;9.256;2024-02-04T12:22:04;97921.94;;;15.03;77.77
12178;BME280;6152;48.728;9.256;2024-02-04T12:24:35;97921.69;;;14.66;82.80
12178;BME280;6152;48.728;9.256;2024-02-04T12:27:03;97917.19;;;13.85;91.73
12178;BME280;6152;48.728;9.256;2024-02-04T12:29:30;97920.34;;;13.62;97.67
12178;BME280;6152;48.728;9.256;2024-02-04T12:32:03;97926.44;;;13.19;100.00
12178;BME280;6152;48.728;9.256;2024-02-04T12:34:30;97922.50;;;12.96;100.00
12178;BME280;6152;48.728;9.256;2024-02-04T12:37:00;97925.72;;;12.85;100.00
12178;BME280;6152;48.728;9.256;2024-02-04T12:39:26;97934.44;;;13.00;100.00
12178;BME280;6152;48.728;9.256;2024-02-04T12:41:53;97939.44;;;12.89;100.00
12178;BME280;6152;48.728;9.256;2024-02-04T12:44:19;97940.38;;;12.88;100.00
12178;BME280;6152;48.728;9.256;2024-02-04T12:46:49;97939.09;;;13.40;100.00
12178;BME280;6152;48.728;9.256;2024-02-04T12:49:19;97928.94;;;14.21;97.89
12178;BME280;6152;48.728;9.256;2024-02-04T12:51:47;97932.09;;;14.95;89.22
12178;BME280;6152;48.728;9.256;2024-02-04T12:54:14;97924.03;;;15.37;82.83
12178;BME280;6152;48.728;9.256;2024-02-04T12:56:42;97916.94;;;15.64;76.20
12178;BME280;6152;48.728;9.256;2024-02-04T12:59:09;97910.50;;;15.94;75.03
12178;BME280;6152;48.728;9.256;2024-02-04T13:01:37;97908.09;;;15.91;74.38
12178;BME280;6152;48.728;9.256;2024-02-04T13:04:04;97904.13;;;16.34;70.46
12178;BME280;6152;48.728;9.256;2024-02-04T13:06:31;97906.19;;;16.67;68.94
12178;BME280;6152;48.728;9.256;2024-02-04T13:08:57;97903.75;;;17.11;68.43
12178;BME280;6152;48.728;9.256;2024-02-04T13:11:25;97913.47;;;17.22;64.29
12178;BME280;6152;48.728;9.256;2024-02-04T13:13:51;97897.34;;;16.92;65.14
12178;BME280;6152;48.728;9.256;2024-02-04T13:16:18;97911.47;;;16.54;66.01